Aviation Digital Data Service (ADDS)

Output produced by METARs form (0250 UTC 23 February 2017)
found at http://aviationweather.gov/adds/metars/
 
KRME 222332Z 2300/2324 09005KT P6SM SCT040 BKN070 
     TEMPO 2309/2313 5SM BR 
     FM231400 19012G22KT P6SM BKN045 
     FM232200 30008KT P6SM SCT015 OVC035